createdAt,value
2023-03-12T16:32:59.779Z,101309.21
2023-03-12T16:33:58.534Z,101313.01
2023-03-12T16:34:57.484Z,101315.75
2023-03-12T16:35:57.456Z,101319.32
2023-03-12T16:36:58.550Z,101323.35
2023-03-12T16:37:57.464Z,101330.92
2023-03-12T16:38:57.543Z,101319.5
2023-03-12T16:39:57.491Z,101331.02
2023-03-12T16:40:57.606Z,101326.99
2023-03-12T16:41:57.550Z,101338.28
2023-03-12T16:42:57.523Z,101331.62
2023-03-12T16:43:57.501Z,101336.67
2023-03-12T16:44:57.456Z,101354.82
2023-03-12T16:45:57.398Z,101342.64
2023-03-12T16:46:57.409Z,101346.87
2023-03-12T16:47:57.570Z,101346.28
2023-03-12T16:49:01.353Z,101343.89
2023-03-12T16:49:57.377Z,101347.62
2023-03-12T16:50:57.348Z,101353.98
2023-03-12T16:51:57.326Z,101356.17
2023-03-12T16:52:57.284Z,101358.32
2023-03-12T16:54:08.140Z,101356.77
2023-03-12T16:55:03.070Z,101356.18
2023-03-12T16:55:57.183Z,101361.89
2023-03-12T16:56:57.448Z,101366.5
2023-03-12T16:57:57.437Z,101365.34
2023-03-12T16:58:58.146Z,101369.57
2023-03-12T16:59:57.232Z,101358.89
2023-03-12T17:00:57.443Z,101362.67
2023-03-12T17:01:57.206Z,101348.31
2023-03-12T17:02:58.550Z,101360.79
2023-03-12T17:03:57.192Z,101366.25
2023-03-12T17:04:57.256Z,101365.24
2023-03-12T17:05:58.397Z,101357.25
2023-03-12T17:06:57.268Z,101367.68
2023-03-12T17:08:00.937Z,101368.91
2023-03-12T17:08:57.132Z,101375.16
2023-03-12T17:09:57.042Z,101372.93
2023-03-12T17:10:57.113Z,101364.1
2023-03-12T17:11:57.320Z,101361.64
2023-03-12T17:12:57.147Z,101372.04
2023-03-12T17:13:57.115Z,101381.06
2023-03-12T17:14:57.020Z,101389.64
2023-03-12T17:15:57.398Z,101394.74
2023-03-12T17:16:58.096Z,101398.46
2023-03-12T17:17:57.301Z,101401.61
2023-03-12T17:18:57.678Z,101404.94
2023-03-12T17:19:57.642Z,101400.09
2023-03-12T17:20:57.406Z,101401.72
2023-03-12T17:21:56.934Z,101415.59
2023-03-12T17:22:56.831Z,101421.17
2023-03-12T17:23:58.505Z,101409.06
